Time;durP1;ratioP1;P1;durP2;ratioP2;P2;SDS_P1;SDS_P2;PMS_P1;PMS_P2;Temp;Humidity;BMP_temperature;BMP_pressure;BME280_temperature;BME280_humidity;BME280_pressure;Samples;Min_cycle;Max_cycle;Signal;HPM_P1;HPM_P2
2022/10/31 00:00:55;;;;;;;13.82;5.15;;;;;;;;;;4986785;28;20280;-61
2022/10/31 00:03:21;;;;;;;11.15;4.88;;;;;;;;;;4986595;28;20739;-61
2022/10/31 00:05:47;;;;;;;14.23;6.28;;;;;;;;;;4987179;28;20209;-61
2022/10/31 00:08:12;;;;;;;11.85;6.10;;;;;;;;;;4985801;28;20255;-61
2022/10/31 00:10:38;;;;;;;12.00;5.53;;;;;;;;;;5001977;28;20677;-61
2022/10/31 00:13:03;;;;;;;16.52;5.97;;;;;;;;;;4986094;28;20267;-62
2022/10/31 00:15:29;;;;;;;16.20;6.25;;;;;;;;;;4987255;28;20688;-61
2022/10/31 00:17:54;;;;;;;15.93;6.15;;;;;;;;;;4987506;28;20201;-61
2022/10/31 00:20:19;;;;;;;16.25;6.22;;;;;;;;;;4986487;28;20312;-61
2022/10/31 00:22:44;;;;;;;13.10;5.40;;;;;;;;;;4986927;28;20209;-61
2022/10/31 00:25:10;;;;;;;13.50;6.22;;;;;;;;;;4990886;28;20379;-61
2022/10/31 00:27:35;;;;;;;14.27;5.40;;;;;;;;;;4992151;28;20205;-61
2022/10/31 00:30:00;;;;;;;13.88;5.80;;;;;;;;;;4992527;28;20213;-62
2022/10/31 00:32:28;;;;;;;11.02;5.10;;;;;;;;;;4992740;28;20696;-61
2022/10/31 00:34:53;;;;;;;13.27;5.72;;;;;;;;;;4990696;28;20213;-61
2022/10/31 00:37:18;;;;;;;12.70;6.22;;;;;;;;;;4992061;28;20217;-61
2022/10/31 00:39:45;;;;;;;12.82;5.28;;;;;;;;;;4992349;28;20213;-61
2022/10/31 00:42:10;;;;;;;12.60;5.85;;;;;;;;;;4991334;28;20245;-61
2022/10/31 00:44:35;;;;;;;15.05;5.30;;;;;;;;;;4992702;28;20248;-61
2022/10/31 00:47:00;;;;;;;10.98;5.57;;;;;;;;;;4992283;28;20672;-63
2022/10/31 00:49:25;;;;;;;12.52;6.20;;;;;;;;;;4991787;28;20213;-61
2022/10/31 00:51:51;;;;;;;11.32;5.90;;;;;;;;;;4992468;28;20218;-61
2022/10/31 00:54:16;;;;;;;11.88;6.43;;;;;;;;;;4991917;28;20212;-61
2022/10/31 00:56:41;;;;;;;13.00;7.47;;;;;;;;;;4991758;28;20292;-61
2022/10/31 00:59:07;;;;;;;11.77;6.70;;;;;;;;;;4994027;28;20570;-62
2022/10/31 01:01:32;;;;;;;16.00;7.40;;;;;;;;;;4995769;28;20280;-61
2022/10/31 01:03:57;;;;;;;14.65;8.35;;;;;;;;;;4995238;28;20220;-61
2022/10/31 01:06:22;;;;;;;11.25;6.82;;;;;;;;;;4995487;28;20213;-61
2022/10/31 01:08:48;;;;;;;17.85;9.18;;;;;;;;;;4995755;28;20299;-61
2022/10/31 01:11:16;;;;;;;16.48;7.70;;;;;;;;;;4984428;28;20224;-62
2022/10/31 01:13:41;;;;;;;18.88;8.50;;;;;;;;;;4984105;28;20223;-62
2022/10/31 01:16:07;;;;;;;13.18;7.80;;;;;;;;;;4985087;28;20209;-62
2022/10/31 01:18:32;;;;;;;22.25;9.40;;;;;;;;;;4984034;28;20307;-61
2022/10/31 01:20:58;;;;;;;18.40;9.73;;;;;;;;;;4984166;28;20954;-62
2022/10/31 01:23:24;;;;;;;18.30;9.18;;;;;;;;;;4982683;28;20703;-62
2022/10/31 01:25:49;;;;;;;15.43;9.40;;;;;;;;;;4979370;28;20217;-62
2022/10/31 01:28:14;;;;;;;13.93;9.32;;;;;;;;;;4966024;28;20213;-62
2022/10/31 01:30:39;;;;;;;19.52;9.75;;;;;;;;;;4970996;28;20209;-62
2022/10/31 01:33:05;;;;;;;18.65;10.02;;;;;;;;;;4975642;28;20205;-62
2022/10/31 01:35:30;;;;;;;21.05;10.30;;;;;;;;;;4977972;28;20201;-62
2022/10/31 01:37:55;;;;;;;17.67;9.98;;;;;;;;;;4977246;28;20706;-62
2022/10/31 01:40:20;;;;;;;15.40;9.20;;;;;;;;;;4976921;28;20221;-62
2022/10/31 01:42:46;;;;;;;19.63;11.63;;;;;;;;;;4976707;28;20221;-62
2022/10/31 01:45:11;;;;;;;22.70;11.05;;;;;;;;;;4976594;28;20304;-62
2022/10/31 01:47:39;;;;;;;23.95;12.05;;;;;;;;;;4975234;28;20212;-62
2022/10/31 01:50:06;;;;;;;18.52;11.60;;;;;;;;;;4971770;28;20259;-62
2022/10/31 01:52:33;;;;;;;16.48;10.70;;;;;;;;;;4969518;28;20209;-61
2022/10/31 01:55:01;;;;;;;17.52;10.38;;;;;;;;;;4972836;28;20237;-62
2022/10/31 01:57:26;;;;;;;18.25;10.88;;;;;;;;;;4976435;28;20233;-61
2022/10/31 01:59:52;;;;;;;19.70;11.30;;;;;;;;;;4976668;28;20220;-62
2022/10/31 02:02:18;;;;;;;19.55;11.30;;;;;;;;;;4978310;28;20228;-62
2022/10/31 02:04:43;;;;;;;19.50;11.57;;;;;;;;;;4963867;28;20198;-62
2022/10/31 02:07:10;;;;;;;20.20;11.98;;;;;;;;;;4958484;28;20218;-62
2022/10/31 02:09:35;;;;;;;19.65;11.90;;;;;;;;;;4956164;28;20216;-62
2022/10/31 02:12:00;;;;;;;20.63;13.18;;;;;;;;;;4962822;28;20688;-62
2022/10/31 02:14:26;;;;;;;17.08;12.15;;;;;;;;;;4980724;28;20213;-62
2022/10/31 02:16:53;;;;;;;22.90;11.70;;;;;;;;;;5005021;28;20221;-62
2022/10/31 02:19:20;;;;;;;21.58;12.30;;;;;;;;;;4980675;28;20301;-62
2022/10/31 02:21:49;;;;;;;19.25;12.60;;;;;;;;;;4969047;28;20725;-62
2022/10/31 02:24:28;;;;;;;20.73;12.73;;;;;;;;;;4968126;28;20226;-62
2022/10/31 02:27:00;;;;;;;22.30;12.50;;;;;;;;;;4967439;28;21033;-62
2022/10/31 02:29:31;;;;;;;19.88;12.27;;;;;;;;;;4969570;28;20300;-62
2022/10/31 02:31:59;;;;;;;17.85;11.98;;;;;;;;;;4968695;28;20213;-62
2022/10/31 02:34:25;;;;;;;21.38;12.02;;;;;;;;;;4968219;28;20225;-62
2022/10/31 02:36:56;;;;;;;18.80;12.38;;;;;;;;;;4969338;28;20463;-62
2022/10/31 02:39:24;;;;;;;19.80;12.85;;;;;;;;;;4974730;28;20213;-62
2022/10/31 02:41:56;;;;;;;16.58;11.30;;;;;;;;;;5002727;28;20716;-62
2022/10/31 02:44:27;;;;;;;20.48;11.95;;;;;;;;;;5003715;28;20239;-62
2022/10/31 02:46:53;;;;;;;18.70;12.32;;;;;;;;;;4989156;28;20205;-62
2022/10/31 02:49:19;;;;;;;22.35;13.15;;;;;;;;;;4986902;28;20213;-62
2022/10/31 02:51:44;;;;;;;20.73;12.52;;;;;;;;;;4988808;28;20276;-62
2022/10/31 02:54:17;;;;;;;18.20;11.88;;;;;;;;;;4986973;28;20574;-62
2022/10/31 02:56:42;;;;;;;20.17;11.98;;;;;;;;;;4985961;28;20352;-62
2022/10/31 02:59:07;;;;;;;21.25;12.32;;;;;;;;;;4988294;28;20564;-62
2022/10/31 03:01:34;;;;;;;24.27;13.63;;;;;;;;;;4988537;28;20217;-62
2022/10/31 03:04:09;;;;;;;23.00;12.65;;;;;;;;;;4987921;28;20256;-62
2022/10/31 03:06:37;;;;;;;19.50;12.77;;;;;;;;;;4988370;28;20676;-62
2022/10/31 03:09:11;;;;;;;19.92;12.95;;;;;;;;;;5002471;28;20275;-62
2022/10/31 03:11:49;;;;;;;16.60;11.10;;;;;;;;;;4987674;28;20282;-62
2022/10/31 03:14:18;;;;;;;18.52;12.40;;;;;;;;;;5003533;28;20245;-62
2022/10/31 03:16:48;;;;;;;17.00;11.32;;;;;;;;;;5002673;28;20781;-62
2022/10/31 03:19:21;;;;;;;21.58;12.77;;;;;;;;;;5003117;28;20212;-62
2022/10/31 03:21:47;;;;;;;20.73;12.45;;;;;;;;;;4988696;28;20221;-62
2022/10/31 03:24:13;;;;;;;19.63;12.20;;;;;;;;;;4987641;28;20596;-62
2022/10/31 03:26:40;;;;;;;19.85;11.10;;;;;;;;;;5003302;28;20202;-62
2022/10/31 03:29:05;;;;;;;20.73;13.43;;;;;;;;;;5008158;28;20236;-62
2022/10/31 03:31:32;;;;;;;20.50;13.40;;;;;;;;;;5007817;28;20790;-62
2022/10/31 03:33:58;;;;;;;19.88;12.02;;;;;;;;;;4993420;28;20213;-62
2022/10/31 03:36:23;;;;;;;18.15;11.80;;;;;;;;;;5007765;28;20292;-62
2022/10/31 03:38:48;;;;;;;18.73;12.18;;;;;;;;;;5007587;28;20264;-62
2022/10/31 03:41:16;;;;;;;18.38;12.48;;;;;;;;;;5007649;28;20225;-62
2022/10/31 03:43:42;;;;;;;18.88;11.57;;;;;;;;;;5008125;28;20701;-62
2022/10/31 03:46:07;;;;;;;22.50;11.48;;;;;;;;;;4991680;28;20241;-62
2022/10/31 03:48:33;;;;;;;20.38;11.73;;;;;;;;;;4964640;28;20291;-62
2022/10/31 03:50:59;;;;;;;18.40;11.30;;;;;;;;;;4970141;28;20586;-62
2022/10/31 03:53:26;;;;;;;21.52;12.60;;;;;;;;;;4974078;28;20800;-62
2022/10/31 03:55:51;;;;;;;20.38;12.38;;;;;;;;;;4970563;28;20221;-62
2022/10/31 03:58:22;;;;;;;23.35;13.18;;;;;;;;;;4975630;28;20220;-62
2022/10/31 04:00:47;;;;;;;24.10;13.43;;;;;;;;;;4976032;28;20401;-62
2022/10/31 04:03:14;;;;;;;21.08;12.38;;;;;;;;;;4975869;28;20623;-62
2022/10/31 04:05:39;;;;;;;19.88;11.75;;;;;;;;;;4975438;28;20290;-62
2022/10/31 04:08:06;;;;;;;19.70;11.85;;;;;;;;;;4975420;28;20799;-62
2022/10/31 04:10:31;;;;;;;22.90;12.80;;;;;;;;;;4970523;28;20220;-62
2022/10/31 04:12:58;;;;;;;22.73;13.88;;;;;;;;;;4967241;28;20216;-62
2022/10/31 04:15:23;;;;;;;15.57;11.65;;;;;;;;;;4965113;28;20205;-62
2022/10/31 04:17:49;;;;;;;19.27;12.90;;;;;;;;;;4976901;28;20271;-62
2022/10/31 04:20:15;;;;;;;21.02;12.93;;;;;;;;;;4976403;28;20219;-62
2022/10/31 04:22:41;;;;;;;21.98;13.90;;;;;;;;;;4974717;28;20247;-62
2022/10/31 04:25:06;;;;;;;19.50;13.05;;;;;;;;;;4976462;28;20892;-62
2022/10/31 04:27:32;;;;;;;24.45;13.65;;;;;;;;;;4976202;28;20303;-62
2022/10/31 04:29:57;;;;;;;19.48;13.63;;;;;;;;;;4976784;28;20583;-62
2022/10/31 04:32:22;;;;;;;16.23;11.82;;;;;;;;;;4968653;28;20212;-63
2022/10/31 04:34:47;;;;;;;17.92;13.00;;;;;;;;;;4972833;28;20210;-62
2022/10/31 04:37:13;;;;;;;20.90;13.05;;;;;;;;;;4974026;28;20336;-62
2022/10/31 04:39:38;;;;;;;20.38;13.05;;;;;;;;;;4980228;28;20240;-62
2022/10/31 04:42:03;;;;;;;22.67;14.50;;;;;;;;;;4978070;28;20861;-62
2022/10/31 04:44:28;;;;;;;24.98;14.48;;;;;;;;;;4980570;28;20301;-62
2022/10/31 04:46:54;;;;;;;23.42;14.52;;;;;;;;;;4980247;28;21052;-62
2022/10/31 04:49:19;;;;;;;21.83;14.32;;;;;;;;;;4978705;28;20248;-62
2022/10/31 04:51:44;;;;;;;24.27;15.77;;;;;;;;;;4980076;28;20304;-62
2022/10/31 04:54:09;;;;;;;21.10;13.80;;;;;;;;;;4974633;28;20884;-62
2022/10/31 04:56:35;;;;;;;24.20;14.63;;;;;;;;;;4973021;28;20233;-62
2022/10/31 04:59:00;;;;;;;24.55;14.98;;;;;;;;;;4973192;28;20244;-62
2022/10/31 05:01:26;;;;;;;25.58;15.90;;;;;;;;;;4975825;28;20229;-62
2022/10/31 05:03:51;;;;;;;25.40;15.35;;;;;;;;;;4980088;28;20624;-62
2022/10/31 05:06:16;;;;;;;25.10;14.50;;;;;;;;;;4979210;28;20356;-62
2022/10/31 05:08:42;;;;;;;25.35;15.15;;;;;;;;;;4979617;28;20213;-62
2022/10/31 05:11:07;;;;;;;24.10;15.82;;;;;;;;;;4964590;28;20570;-62
2022/10/31 05:13:32;;;;;;;23.25;15.73;;;;;;;;;;4978632;28;20220;-62
2022/10/31 05:15:57;;;;;;;20.75;14.73;;;;;;;;;;4976366;28;20268;-62
2022/10/31 05:18:23;;;;;;;27.75;17.85;;;;;;;;;;4973151;28;20296;-62
2022/10/31 05:20:48;;;;;;;26.63;16.33;;;;;;;;;;4973077;28;20371;-62
2022/10/31 05:23:13;;;;;;;27.25;17.48;;;;;;;;;;4973154;28;20291;-62
2022/10/31 05:25:39;;;;;;;27.48;17.50;;;;;;;;;;4979191;28;20244;-62
2022/10/31 05:28:04;;;;;;;27.92;18.23;;;;;;;;;;4978755;28;20217;-62
2022/10/31 05:30:30;;;;;;;24.33;16.67;;;;;;;;;;4978286;28;20316;-62
2022/10/31 05:32:55;;;;;;;27.88;18.73;;;;;;;;;;4977576;28;20213;-62
2022/10/31 05:35:22;;;;;;;26.95;17.42;;;;;;;;;;4978576;28;20303;-62
2022/10/31 05:37:48;;;;;;;28.85;18.10;;;;;;;;;;4978251;28;20221;-62
2022/10/31 05:40:13;;;;;;;28.38;17.58;;;;;;;;;;4973415;28;21034;-62
2022/10/31 05:42:39;;;;;;;27.80;17.75;;;;;;;;;;4972029;28;20927;-62
2022/10/31 05:45:05;;;;;;;24.58;15.93;;;;;;;;;;4971273;28;20295;-62
2022/10/31 05:47:30;;;;;;;27.10;17.08;;;;;;;;;;4981324;28;20220;-62
2022/10/31 05:49:56;;;;;;;26.95;17.45;;;;;;;;;;4984965;28;20256;-62
2022/10/31 05:52:21;;;;;;;24.98;17.27;;;;;;;;;;4984112;28;20223;-62
2022/10/31 05:54:46;;;;;;;27.17;17.17;;;;;;;;;;4983482;28;20217;-62
2022/10/31 05:57:11;;;;;;;31.63;19.02;;;;;;;;;;4984769;28;20739;-62
2022/10/31 05:59:37;;;;;;;26.55;17.00;;;;;;;;;;4982700;28;20225;-62
2022/10/31 06:02:02;;;;;;;30.70;19.75;;;;;;;;;;4980170;28;20239;-62
2022/10/31 06:04:27;;;;;;;32.90;21.05;;;;;;;;;;4967486;28;20209;-62
2022/10/31 06:06:53;;;;;;;27.02;17.20;;;;;;;;;;4971660;28;20209;-62
2022/10/31 06:09:18;;;;;;;31.83;18.45;;;;;;;;;;4975247;28;20221;-62
2022/10/31 06:11:43;;;;;;;31.27;18.60;;;;;;;;;;4977904;28;20319;-62
2022/10/31 06:14:09;;;;;;;30.80;18.55;;;;;;;;;;4977578;28;20209;-62
2022/10/31 06:16:34;;;;;;;29.73;17.50;;;;;;;;;;4977904;28;20572;-62
2022/10/31 06:18:59;;;;;;;25.83;17.08;;;;;;;;;;4977100;28;20216;-62
2022/10/31 06:21:24;;;;;;;27.30;18.55;;;;;;;;;;4977842;28;20712;-62
2022/10/31 06:23:50;;;;;;;24.30;16.77;;;;;;;;;;4965545;28;20221;-62
2022/10/31 06:26:15;;;;;;;29.40;18.98;;;;;;;;;;4971284;28;20213;-62
2022/10/31 06:28:40;;;;;;;29.80;18.85;;;;;;;;;;4971670;28;20220;-62
2022/10/31 06:31:06;;;;;;;29.55;18.55;;;;;;;;;;4971290;28;20304;-62
2022/10/31 06:33:32;;;;;;;23.08;17.17;;;;;;;;;;4977793;28;20244;-62
2022/10/31 06:35:57;;;;;;;24.60;16.98;;;;;;;;;;4978405;28;20224;-62
2022/10/31 06:38:22;;;;;;;30.58;18.27;;;;;;;;;;4978359;28;20209;-62
2022/10/31 06:40:48;;;;;;;22.90;16.52;;;;;;;;;;4976907;28;20570;-63
2022/10/31 06:43:14;;;;;;;23.60;16.92;;;;;;;;;;4977725;28;20217;-62
2022/10/31 06:45:40;;;;;;;23.25;16.15;;;;;;;;;;4977591;28;20436;-61
2022/10/31 06:48:05;;;;;;;23.90;15.75;;;;;;;;;;4971420;28;20751;-62
2022/10/31 06:50:30;;;;;;;25.55;16.08;;;;;;;;;;4971074;28;20219;-61
2022/10/31 06:52:56;;;;;;;30.17;20.57;;;;;;;;;;4969043;28;20523;-61
2022/10/31 06:55:22;;;;;;;29.63;19.25;;;;;;;;;;4973529;28;20225;-61
2022/10/31 06:57:49;;;;;;;27.75;19.35;;;;;;;;;;4975365;28;20336;-62
2022/10/31 07:00:14;;;;;;;26.83;19.02;;;;;;;;;;4975571;28;20205;-61
2022/10/31 07:02:40;;;;;;;33.60;20.30;;;;;;;;;;4974127;28;20225;-61
2022/10/31 07:05:05;;;;;;;28.48;19.35;;;;;;;;;;4974567;28;20240;-62
2022/10/31 07:07:30;;;;;;;29.58;19.67;;;;;;;;;;4975127;28;20829;-61
2022/10/31 07:09:56;;;;;;;28.13;18.58;;;;;;;;;;4970655;28;20868;-61
2022/10/31 07:12:21;;;;;;;27.27;17.98;;;;;;;;;;4968052;28;20283;-62
2022/10/31 07:14:46;;;;;;;24.17;16.50;;;;;;;;;;4968649;28;20205;-61
2022/10/31 07:17:11;;;;;;;31.75;17.65;;;;;;;;;;4970914;28;20264;-61
2022/10/31 07:19:37;;;;;;;26.50;17.25;;;;;;;;;;4974694;28;20208;-61
2022/10/31 07:22:02;;;;;;;23.63;15.88;;;;;;;;;;4973624;28;20217;-62
2022/10/31 07:24:27;;;;;;;25.30;16.00;;;;;;;;;;4974038;28;20336;-62
2022/10/31 07:26:52;;;;;;;23.35;17.17;;;;;;;;;;4975191;28;20209;-62
2022/10/31 07:29:18;;;;;;;29.05;18.73;;;;;;;;;;4972973;28;20212;-62
2022/10/31 07:31:45;;;;;;;30.33;19.85;;;;;;;;;;4972707;28;20744;-62
2022/10/31 07:34:10;;;;;;;34.60;20.80;;;;;;;;;;4967528;28;20222;-63
2022/10/31 07:36:35;;;;;;;31.23;19.98;;;;;;;;;;4966644;28;20217;-61
2022/10/31 07:39:02;;;;;;;33.53;19.95;;;;;;;;;;4976640;28;20205;-62
2022/10/31 07:41:27;;;;;;;32.63;19.95;;;;;;;;;;4985433;28;20221;-61
2022/10/31 07:43:52;;;;;;;32.75;21.20;;;;;;;;;;5000624;28;20201;-61
2022/10/31 07:46:17;;;;;;;38.88;22.13;;;;;;;;;;4985596;28;20201;-61
2022/10/31 07:48:43;;;;;;;49.60;28.83;;;;;;;;;;4983688;28;20429;-62
2022/10/31 07:51:08;;;;;;;43.75;25.48;;;;;;;;;;4985054;28;20464;-61
2022/10/31 07:53:33;;;;;;;44.65;24.40;;;;;;;;;;4985597;28;20209;-61
2022/10/31 07:55:58;;;;;;;52.97;26.65;;;;;;;;;;4983853;28;20229;-61
2022/10/31 07:58:24;;;;;;;51.55;25.20;;;;;;;;;;4984646;28;20201;-61
2022/10/31 08:00:50;;;;;;;54.45;28.75;;;;;;;;;;4986100;28;20570;-61
2022/10/31 08:03:16;;;;;;;47.13;25.92;;;;;;;;;;4984878;28;20266;-61
2022/10/31 08:05:41;;;;;;;43.92;23.30;;;;;;;;;;4984349;28;20236;-61
2022/10/31 08:08:07;;;;;;;45.90;24.95;;;;;;;;;;5000384;28;20237;-62
2022/10/31 08:10:32;;;;;;;39.97;23.08;;;;;;;;;;4989909;28;20514;-61
2022/10/31 08:12:58;;;;;;;33.42;22.23;;;;;;;;;;4988985;28;20208;-61
2022/10/31 08:15:23;;;;;;;29.77;20.98;;;;;;;;;;5004213;28;20213;-61
2022/10/31 08:17:49;;;;;;;34.35;21.25;;;;;;;;;;5004370;28;20209;-61
2022/10/31 08:20:14;;;;;;;26.52;18.65;;;;;;;;;;4988775;28;20213;-62
2022/10/31 08:22:39;;;;;;;25.10;17.38;;;;;;;;;;4989882;28;20481;-61
2022/10/31 08:25:05;;;;;;;22.20;16.70;;;;;;;;;;4986867;28;20665;-61
2022/10/31 08:27:30;;;;;;;24.75;17.23;;;;;;;;;;4989223;28;20209;-61
2022/10/31 08:29:56;;;;;;;29.63;18.20;;;;;;;;;;4989741;28;20220;-61
2022/10/31 08:32:21;;;;;;;26.92;18.13;;;;;;;;;;4985042;28;20217;-61
2022/10/31 08:34:47;;;;;;;25.65;16.77;;;;;;;;;;4987482;28;20244;-62
2022/10/31 08:37:12;;;;;;;23.13;16.92;;;;;;;;;;4988601;28;20246;-62
2022/10/31 08:39:37;;;;;;;22.08;15.40;;;;;;;;;;4986734;28;20212;-61
2022/10/31 08:42:03;;;;;;;20.67;14.05;;;;;;;;;;5000499;28;20228;-62
2022/10/31 08:44:28;;;;;;;19.50;14.23;;;;;;;;;;4990331;28;20227;-62
2022/10/31 08:46:53;;;;;;;16.95;13.80;;;;;;;;;;4990168;28;20205;-62
2022/10/31 08:49:18;;;;;;;20.98;14.13;;;;;;;;;;5004498;28;20597;-62
2022/10/31 08:51:46;;;;;;;18.58;14.00;;;;;;;;;;4989687;28;20240;-61
2022/10/31 08:54:12;;;;;;;18.15;13.52;;;;;;;;;;4972810;28;20264;-62
2022/10/31 08:56:37;;;;;;;19.88;12.93;;;;;;;;;;4990009;28;20739;-61
2022/10/31 08:59:02;;;;;;;18.25;12.88;;;;;;;;;;4989699;28;20236;-62
2022/10/31 09:01:28;;;;;;;16.45;11.82;;;;;;;;;;4989376;28;20224;-61
2022/10/31 09:03:53;;;;;;;15.90;12.30;;;;;;;;;;4990802;28;20232;-61
2022/10/31 09:06:18;;;;;;;17.60;12.52;;;;;;;;;;4987091;28;20248;-62
2022/10/31 09:08:43;;;;;;;17.23;11.32;;;;;;;;;;4989704;28;20209;-62
2022/10/31 09:11:09;;;;;;;16.75;11.88;;;;;;;;;;4989545;28;20491;-62
2022/10/31 09:13:34;;;;;;;15.93;11.38;;;;;;;;;;4990166;28;20205;-62
2022/10/31 09:15:59;;;;;;;16.60;11.73;;;;;;;;;;4989462;28;20582;-63
2022/10/31 09:18:27;;;;;;;19.42;12.93;;;;;;;;;;4989629;28;20209;-62
2022/10/31 09:20:52;;;;;;;19.30;12.43;;;;;;;;;;4990208;28;20209;-63
2022/10/31 09:23:19;;;;;;;18.45;12.38;;;;;;;;;;4989621;28;20275;-62
2022/10/31 09:25:44;;;;;;;15.10;11.93;;;;;;;;;;4990215;28;20220;-62
2022/10/31 09:28:10;;;;;;;17.20;12.43;;;;;;;;;;4989811;28;20216;-62
2022/10/31 09:30:35;;;;;;;18.05;12.95;;;;;;;;;;4989214;28;20240;-63
2022/10/31 09:33:02;;;;;;;19.40;12.52;;;;;;;;;;4989450;28;20232;-63
2022/10/31 09:35:27;;;;;;;18.35;13.13;;;;;;;;;;5005071;28;20205;-63
2022/10/31 09:37:54;;;;;;;17.38;13.27;;;;;;;;;;4989357;28;20212;-62
2022/10/31 09:40:20;;;;;;;17.50;12.55;;;;;;;;;;4989249;28;20210;-63
2022/10/31 09:42:48;;;;;;;18.98;12.88;;;;;;;;;;5003823;28;20272;-63
2022/10/31 09:45:16;;;;;;;20.85;14.65;;;;;;;;;;4988623;28;20711;-63
2022/10/31 09:47:41;;;;;;;20.33;15.63;;;;;;;;;;5002634;28;20209;-64
2022/10/31 09:50:11;;;;;;;24.40;17.58;;;;;;;;;;4988360;28;20216;-62
2022/10/31 09:52:36;;;;;;;24.60;16.60;;;;;;;;;;5001227;28;20213;-63
2022/10/31 09:55:05;;;;;;;28.33;18.15;;;;;;;;;;5003837;28;20213;-63
2022/10/31 09:57:32;;;;;;;27.40;18.08;;;;;;;;;;4988196;28;20312;-63
2022/10/31 09:59:57;;;;;;;27.67;17.95;;;;;;;;;;5001994;28;20628;-63
2022/10/31 10:02:25;;;;;;;30.35;19.70;;;;;;;;;;4989244;28;20686;-63
2022/10/31 10:04:59;;;;;;;27.02;19.13;;;;;;;;;;5003812;28;20514;-62
2022/10/31 10:07:26;;;;;;;31.92;18.83;;;;;;;;;;5001121;28;20240;-62
2022/10/31 10:09:51;;;;;;;28.25;18.77;;;;;;;;;;4988980;28;20688;-61
2022/10/31 10:12:25;;;;;;;30.77;18.88;;;;;;;;;;4988017;28;20209;-62
2022/10/31 10:14:57;;;;;;;27.75;18.42;;;;;;;;;;4980677;28;20297;-62
2022/10/31 10:17:26;;;;;;;27.90;19.13;;;;;;;;;;4988560;28;20264;-62
2022/10/31 10:19:56;;;;;;;27.95;18.17;;;;;;;;;;5003246;28;20201;-62
2022/10/31 10:22:26;;;;;;;29.15;19.02;;;;;;;;;;5003236;28;20256;-62
2022/10/31 10:24:53;;;;;;;27.92;17.58;;;;;;;;;;5002921;28;20209;-62
2022/10/31 10:27:35;;;;;;;27.63;14.60;;;;;;;;;;4988294;28;20522;-63
2022/10/31 10:30:03;;;;;;;22.98;13.95;;;;;;;;;;4988286;28;20205;-63
2022/10/31 10:32:33;;;;;;;23.40;14.23;;;;;;;;;;4987126;28;20217;-63
2022/10/31 10:34:59;;;;;;;21.17;13.25;;;;;;;;;;5001003;28;20871;-63
2022/10/31 10:37:29;;;;;;;22.45;13.95;;;;;;;;;;4988256;28;20209;-63
2022/10/31 10:39:56;;;;;;;19.52;11.90;;;;;;;;;;4987443;28;20209;-63
2022/10/31 10:47:59;;;;;;;24.70;12.95;;;;;;;;;;4987904;28;20268;-62
2022/10/31 10:50:27;;;;;;;27.52;14.02;;;;;;;;;;5002602;28;20239;-63
2022/10/31 10:52:59;;;;;;;25.10;15.43;;;;;;;;;;4985130;28;20431;-63
2022/10/31 10:55:24;;;;;;;22.85;14.13;;;;;;;;;;4987342;28;20217;-62
2022/10/31 10:57:53;;;;;;;25.17;15.05;;;;;;;;;;4988805;28;20689;-63
2022/10/31 11:00:20;;;;;;;25.25;15.57;;;;;;;;;;4987424;28;21024;-63
2022/10/31 11:02:45;;;;;;;25.83;15.50;;;;;;;;;;4988470;28;20225;-63
2022/10/31 11:05:18;;;;;;;23.42;15.50;;;;;;;;;;4988407;28;20220;-64
2022/10/31 11:07:43;;;;;;;25.70;16.77;;;;;;;;;;5002947;28;20236;-64
2022/10/31 11:10:13;;;;;;;23.92;15.68;;;;;;;;;;4983041;28;20204;-63
2022/10/31 11:12:39;;;;;;;28.55;16.63;;;;;;;;;;4988056;28;20739;-63
2022/10/31 11:15:15;;;;;;;29.10;16.73;;;;;;;;;;4987055;28;20232;-64
2022/10/31 11:17:40;;;;;;;28.08;16.63;;;;;;;;;;5001312;28;20759;-64
2022/10/31 11:20:11;;;;;;;31.77;19.27;;;;;;;;;;5001784;28;20770;-64
2022/10/31 11:22:37;;;;;;;27.00;18.00;;;;;;;;;;4987715;28;20225;-64
2022/10/31 11:25:11;;;;;;;31.48;18.20;;;;;;;;;;5002232;28;20672;-64
2022/10/31 11:27:37;;;;;;;29.88;19.08;;;;;;;;;;4986582;28;20295;-64
2022/10/31 11:30:04;;;;;;;30.20;19.23;;;;;;;;;;4987027;28;20281;-64
2022/10/31 11:32:29;;;;;;;31.52;17.63;;;;;;;;;;4985908;28;20217;-64
2022/10/31 11:34:55;;;;;;;27.63;17.67;;;;;;;;;;4987843;28;20205;-64
2022/10/31 11:37:23;;;;;;;31.58;17.20;;;;;;;;;;5000441;28;20225;-64
2022/10/31 11:39:53;;;;;;;29.20;18.08;;;;;;;;;;5002270;28;20235;-64
2022/10/31 11:42:18;;;;;;;28.58;17.38;;;;;;;;;;5000825;28;20241;-64
2022/10/31 11:44:44;;;;;;;31.70;18.20;;;;;;;;;;5002931;28;20328;-64
2022/10/31 11:47:09;;;;;;;28.73;17.48;;;;;;;;;;5002162;28;20580;-64
2022/10/31 11:49:36;;;;;;;30.30;17.67;;;;;;;;;;5002102;28;20209;-64
2022/10/31 11:52:08;;;;;;;29.00;18.15;;;;;;;;;;5002142;28;20279;-64
2022/10/31 11:54:39;;;;;;;28.40;19.23;;;;;;;;;;5002365;28;20327;-64
2022/10/31 11:57:04;;;;;;;28.17;18.95;;;;;;;;;;4986501;28;20308;-64
2022/10/31 11:59:30;;;;;;;34.92;20.30;;;;;;;;;;4987612;28;20292;-64
2022/10/31 12:01:56;;;;;;;32.28;19.67;;;;;;;;;;5002344;28;20217;-64
2022/10/31 12:04:24;;;;;;;33.10;20.73;;;;;;;;;;5001316;28;20242;-64
2022/10/31 12:06:50;;;;;;;29.83;19.33;;;;;;;;;;5014654;28;20236;-64
2022/10/31 12:09:22;;;;;;;34.05;20.77;;;;;;;;;;5001883;28;20240;-64
2022/10/31 12:11:50;;;;;;;32.78;19.70;;;;;;;;;;5001710;28;20209;-64
2022/10/31 12:14:22;;;;;;;36.95;21.58;;;;;;;;;;4986473;28;20232;-64
2022/10/31 12:16:55;;;;;;;34.05;21.83;;;;;;;;;;4982986;28;20212;-64
2022/10/31 12:19:25;;;;;;;33.60;20.42;;;;;;;;;;4967001;28;20256;-64
2022/10/31 12:21:58;;;;;;;36.28;23.52;;;;;;;;;;4982799;28;20218;-64
2022/10/31 12:24:31;;;;;;;33.17;21.17;;;;;;;;;;4982902;28;20267;-64
2022/10/31 12:27:04;;;;;;;34.38;21.23;;;;;;;;;;4985989;28;20263;-64
2022/10/31 12:29:33;;;;;;;37.20;20.80;;;;;;;;;;4985734;28;20317;-64
2022/10/31 12:32:05;;;;;;;32.00;21.17;;;;;;;;;;4986751;28;20209;-64
2022/10/31 12:34:33;;;;;;;34.55;20.42;;;;;;;;;;4987018;28;20230;-64
2022/10/31 12:37:02;;;;;;;35.13;20.35;;;;;;;;;;4983761;28;20216;-64
2022/10/31 12:39:36;;;;;;;35.20;19.85;;;;;;;;;;4989331;28;20205;-64
2022/10/31 12:42:06;;;;;;;31.50;18.83;;;;;;;;;;4986696;28;20262;-64
2022/10/31 12:44:43;;;;;;;32.65;20.60;;;;;;;;;;5002586;28;20630;-64
2022/10/31 12:47:20;;;;;;;32.60;19.73;;;;;;;;;;5000467;28;20296;-64
2022/10/31 12:49:49;;;;;;;34.83;20.48;;;;;;;;;;4985998;28;20908;-64
2022/10/31 12:52:19;;;;;;;37.22;20.02;;;;;;;;;;5001282;28;20263;-64
2022/10/31 12:54:47;;;;;;;29.70;18.58;;;;;;;;;;4987404;28;20221;-64
2022/10/31 12:57:12;;;;;;;32.95;19.83;;;;;;;;;;4990275;28;20229;-64
2022/10/31 12:59:39;;;;;;;32.78;20.35;;;;;;;;;;4990687;28;20593;-64
2022/10/31 13:02:13;;;;;;;34.35;20.33;;;;;;;;;;5005731;28;20217;-64
2022/10/31 13:04:41;;;;;;;32.22;19.00;;;;;;;;;;5006083;28;20814;-64
2022/10/31 13:07:10;;;;;;;33.17;19.85;;;;;;;;;;5004355;28;20205;-64
2022/10/31 13:09:38;;;;;;;38.40;20.05;;;;;;;;;;4989628;28;20599;-64
2022/10/31 13:12:06;;;;;;;36.20;18.95;;;;;;;;;;5004909;28;20209;-64
2022/10/31 13:14:34;;;;;;;33.92;19.95;;;;;;;;;;4974900;28;20206;-64
2022/10/31 13:16:59;;;;;;;34.45;20.40;;;;;;;;;;4985514;28;20209;-64
2022/10/31 13:19:30;;;;;;;32.33;19.95;;;;;;;;;;4970372;28;20906;-64
2022/10/31 13:22:00;;;;;;;31.67;19.25;;;;;;;;;;4969921;28;20230;-64
2022/10/31 13:24:28;;;;;;;37.55;20.65;;;;;;;;;;4984619;28;20206;-64
2022/10/31 13:26:54;;;;;;;36.67;20.63;;;;;;;;;;4985542;28;20737;-62
2022/10/31 13:29:33;;;;;;;32.65;19.77;;;;;;;;;;4969599;28;20880;-62
2022/10/31 13:31:59;;;;;;;33.63;19.75;;;;;;;;;;4985654;28;20276;-63
2022/10/31 13:34:33;;;;;;;37.00;19.50;;;;;;;;;;4985437;28;20918;-63
2022/10/31 13:37:10;;;;;;;34.10;19.88;;;;;;;;;;4984627;28;20622;-63
2022/10/31 13:39:38;;;;;;;32.92;19.13;;;;;;;;;;4993972;28;20699;-63
2022/10/31 13:42:10;;;;;;;32.00;19.38;;;;;;;;;;4988629;28;20308;-63
2022/10/31 13:44:38;;;;;;;33.42;19.00;;;;;;;;;;5004948;28;20264;-63
2022/10/31 13:47:18;;;;;;;33.35;18.85;;;;;;;;;;4989191;28;20206;-64
2022/10/31 13:49:43;;;;;;;31.02;18.20;;;;;;;;;;5004268;28;20300;-64
2022/10/31 13:52:08;;;;;;;34.30;18.20;;;;;;;;;;4989292;28;20316;-63
2022/10/31 13:54:34;;;;;;;35.95;18.02;;;;;;;;;;4988784;28;20598;-63
2022/10/31 13:56:59;;;;;;;27.65;16.85;;;;;;;;;;4988483;28;20291;-64
2022/10/31 13:59:25;;;;;;;38.55;16.60;;;;;;;;;;4989064;28;20300;-62
2022/10/31 14:01:53;;;;;;;28.63;17.65;;;;;;;;;;5004294;28;20256;-64
2022/10/31 14:04:20;;;;;;;29.83;16.67;;;;;;;;;;4988343;28;20293;-65
2022/10/31 14:06:53;;;;;;;29.95;17.83;;;;;;;;;;5004283;28;20853;-65
2022/10/31 14:09:19;;;;;;;28.75;16.40;;;;;;;;;;5003413;28;20660;-65
2022/10/31 14:11:45;;;;;;;27.05;17.30;;;;;;;;;;5003361;28;20614;-65
2022/10/31 14:14:11;;;;;;;29.60;17.33;;;;;;;;;;5004019;28;20216;-65
2022/10/31 14:16:38;;;;;;;32.58;17.02;;;;;;;;;;5004543;28;20224;-65
2022/10/31 14:19:05;;;;;;;31.70;16.38;;;;;;;;;;5001160;28;20213;-64
2022/10/31 14:21:31;;;;;;;30.23;16.92;;;;;;;;;;5004734;28;20227;-63